Latest Weather Observations for Portland Airport

IDV60801

Issued at 4:05 pm EDT Thursday 23 October 2014 (issued every 30 minutes, with the page automatically refreshed every 10 minutes)

About weather observations | Map of weather stations | Latest weather observations for VIC | Other Formats
Station Details ID: 090171 Name: CASHMORE AIRPORT Lat: -38.31 Lon: 141.47 Height: 80.9 m
Data from the previous 72 hours. | See also: Recent months at Portland Airport
Date/Time
EDT
Temp
°C
App
Temp
°C
Dew
Point
Rel
Hum
%
Delta-T
°C
Wind Press
QNH
hPa
Press
MSL
hPa
Rain
since 9 am
mm
Dir
 
Spd
km/h
Gust
km/h
Spd
kts
Gust
kts
23/04:00pm 14.7 10.8 12.0 84 1.5 SE 24 33 13 18 1016.7 1016.7 0.0
23/03:30pm 15.2 12.0 12.0 81 1.7 SE 20 32 11 17 1017.5 1017.5 0.0
23/03:00pm 14.9 11.9 11.9 82 1.6 ESE 19 26 10 14 1017.6 1017.6 0.0
23/02:30pm 14.7 11.6 11.5 81 1.7 ESE 19 32 10 17 1018.0 1018.0 0.0
23/02:00pm 14.3 10.8 10.9 80 1.8 ESE 20 30 11 16 1018.3 1018.3 0.0
23/01:30pm 14.2 10.8 11.4 83 1.5 E 20 32 11 17 1018.7 1018.7 0.0
23/01:00pm 14.3 10.6 11.5 83 1.5 E 22 32 12 17 1019.1 1019.1 0.0
23/12:30pm 14.0 10.6 11.2 83 1.5 ESE 20 35 11 19 1019.5 1019.5 0.0
23/12:00pm 13.9 10.5 11.2 84 1.4 ESE 20 33 11 18 1019.7 1019.7 0.0
23/11:30am 13.6 9.5 11.3 86 1.2 ESE 24 37 13 20 1020.0 1020.0 0.0
23/11:00am 13.6 10.3 11.7 88 1.0 ESE 20 32 11 17 1020.4 1020.4 0.0
23/10:30am 12.7 8.2 11.4 92 0.7 SE 26 41 14 22 1020.6 1020.6 0.0
23/10:22am 12.8 8.4 11.7 93 0.6 SE 26 39 14 21 1020.6 1020.6 0.0
23/10:00am 13.0 9.0 11.7 92 0.7 ESE 24 39 13 21 1020.7 1020.7 0.0
23/09:58am 13.0 8.6 11.6 91 0.7 ESE 26 39 14 21 1020.8 1020.8 0.0
23/09:30am 12.6 8.4 11.2 91 0.7 ESE 24 33 13 18 1020.9 1020.9 0.0
23/09:00am 12.5 8.7 11.1 91 0.7 SE 22 35 12 19 1021.0 1021.0 0.0
23/08:30am 12.6 9.2 11.2 91 0.7 ESE 20 30 11 16 1020.9 1020.9 0.0
23/08:00am 12.5 9.1 11.4 93 0.6 SE 20 32 11 17 1020.9 1020.9 0.0
23/07:30am 12.4 9.1 11.0 91 0.7 ESE 19 30 10 16 1020.9 1020.9 0.0
23/07:00am 12.3 8.9 10.7 90 0.8 ESE 19 30 10 16 1020.8 1020.8 0.0
23/06:30am 12.6 9.2 11.2 91 0.7 SE 20 28 11 15 1020.5 1020.5 0.0
23/06:00am 12.6 9.1 10.8 89 0.9 SE 20 28 11 15 1020.4 1020.4 0.0
23/05:30am 12.5 8.7 11.2 92 0.7 SE 22 30 12 16 1020.5 1020.5 0.0
23/05:18am 12.6 9.2 11.2 91 0.7 SE 20 28 11 15 1020.3 1020.3 0.0
23/05:00am 12.4 9.1 10.8 90 0.8 SE 19 28 10 15 1020.3 1020.3 0.0
23/04:30am 12.4 9.1 11.5 94 0.5 SE 20 28 11 15 1020.4 1020.4 0.0
23/04:23am 12.3 8.9 11.4 94 0.5 SE 20 28 11 15 1020.3 1020.3 0.0
23/04:13am 12.4 9.7 11.6 95 0.4 SE 17 24 9 13 1020.4 1020.4 0.0
23/04:00am 12.4 9.1 11.6 95 0.4 SE 20 28 11 15 1020.5 1020.5 0.0
23/03:59am 12.5 9.2 11.7 95 0.4 SE 20 28 11 15 1020.5 1020.5 0.0
23/03:58am 12.5 9.2 11.7 95 0.4 SE 20 28 11 15 1020.5 1020.5 0.0
23/03:43am 12.4 9.3 11.6 95 0.4 SE 19 26 10 14 1020.5 1020.5 0.0
23/03:34am 12.4 9.3 11.6 95 0.4 SE 19 26 10 14 1020.4 1020.4 0.0
23/03:30am 12.4 9.7 11.6 95 0.4 SE 17 26 9 14 1020.5 1020.5 0.0
23/03:23am 12.4 9.3 11.6 95 0.4 SE 19 32 10 17 1020.5 1020.5 0.0
23/03:21am 12.4 9.3 11.6 95 0.4 SE 19 32 10 17 1020.5 1020.5 0.0
23/03:00am 12.6 9.5 11.7 94 0.5 SE 19 26 10 14 1020.8 1020.8 0.0
23/02:57am 12.6 9.8 11.5 93 0.6 SE 17 26 9 14 1020.8 1020.8 0.0
23/02:30am 12.5 10.2 11.6 94 0.5 SE 15 20 8 11 1020.9 1020.9 0.0
23/02:00am 12.6 9.9 11.7 94 0.5 SE 17 22 9 12 1020.9 1020.9 0.0
23/01:30am 12.5 9.8 11.7 95 0.4 SE 17 22 9 12 1020.9 1020.9 0.0
23/01:00am 12.5 9.8 11.6 94 0.5 SSE 17 28 9 15 1021.3 1021.3 0.0
23/12:30am 12.6 10.3 11.7 94 0.5 SSE 15 26 8 14 1021.3 1021.3 0.0
23/12:03am 12.7 10.8 11.8 94 0.5 SSE 13 22 7 12 1021.4 1021.4 0.0
23/12:00am 12.7 10.4 11.8 94 0.5 SSE 15 24 8 13 1021.4 1021.4 0.0
 
Date/Time
EDT
Temp
°C
App
Temp
°C
Dew
Point
Rel
Hum
%
Delta-T
°C
Wind Press
QNH
hPa
Press
MSL
hPa
Rain
since 9 am
mm
Dir
 
Spd
km/h
Gust
km/h
Spd
kts
Gust
kts
22/11:53pm 12.6 9.9 11.7 94 0.5 SE 17 24 9 13 1021.4 1021.4 0.0
22/11:34pm 12.9 10.3 12.0 94 0.5 SE 17 24 9 13 1021.4 1021.4 0.0
22/11:30pm 12.9 10.7 12.0 94 0.5 SSE 15 24 8 13 1021.4 1021.4 0.0
22/11:16pm 13.0 10.7 11.9 93 0.6 SSE 15 22 8 12 1021.3 1021.3 0.0
22/11:00pm 13.0 10.3 11.7 92 0.7 SSE 17 26 9 14 1021.3 1021.3 0.0
22/10:30pm 13.2 10.2 11.8 91 0.8 SE 19 30 10 16 1021.2 1021.2 0.0
22/10:00pm 13.0 9.7 11.6 91 0.7 SE 20 28 11 15 1021.2 1021.2 0.0
22/09:30pm 13.0 10.3 11.7 92 0.7 SSE 17 28 9 15 1021.2 1021.2 0.0
22/09:00pm 13.2 10.5 11.6 90 0.9 SSE 17 30 9 16 1021.1 1021.1 0.0
22/08:30pm 13.2 10.5 11.6 90 0.9 SSE 17 30 9 16 1020.7 1020.7 0.0
22/08:00pm 13.4 10.7 11.8 90 0.9 SSE 17 28 9 15 1020.3 1020.3 0.0
22/07:30pm 13.5 10.2 11.6 88 1.0 S 20 32 11 17 1019.6 1019.6 0.0
22/07:00pm 13.6 10.4 12.0 90 0.9 S 20 30 11 16 1019.2 1019.2 0.0
22/06:30pm 13.6 10.7 12.2 91 0.8 S 19 30 10 16 1018.7 1018.7 0.0
22/06:00pm 14.1 11.3 12.5 90 0.9 S 19 30 10 16 1018.3 1018.3 0.0
22/05:30pm 14.5 11.7 12.5 88 1.1 S 19 32 10 17 1018.1 1018.1 0.0
22/05:00pm 14.8 12.1 12.8 88 1.1 S 19 30 10 16 1017.9 1017.9 0.0
22/04:30pm 15.0 12.1 13.0 88 1.1 S 20 30 11 16 1018.1 1018.1 0.0
22/04:00pm 15.5 13.0 13.5 88 1.1 SSW 19 32 10 17 1018.1 1018.1 0.0
22/03:30pm 15.9 12.7 13.2 84 1.5 SSW 22 35 12 19 1018.1 1018.1 0.0
22/03:14pm 17.2 14.5 14.5 84 1.6 SSW 22 33 12 18 1018.1 1018.1 0.0
22/03:00pm 17.0 14.4 13.9 82 1.8 SSW 20 30 11 16 1018.0 1018.0 0.0
22/02:30pm 17.9 15.6 14.2 79 2.1 SW 19 26 10 14 1018.0 1018.0 0.0
22/02:00pm 17.7 14.9 13.2 75 2.5 SSW 20 30 11 16 1017.9 1017.9 0.0
22/01:30pm 20.9 19.1 14.5 67 3.8 SSW 17 24 9 13 1017.4 1017.4 0.0
22/01:00pm 23.6 21.5 13.5 53 5.9 WSW 17 22 9 12 1017.1 1017.1 0.0
22/12:30pm 23.4 20.0 11.1 46 6.9 WSW 20 28 11 15 1017.1 1017.1 0.0
22/12:00pm 23.0 20.7 12.9 53 5.8 WSW 17 24 9 13 1017.3 1017.3 0.0
22/11:30am 20.3 17.2 11.5 57 4.9 WSW 19 24 10 13 1017.6 1017.6 0.0
22/11:00am 23.4 22.1 13.6 54 5.7 WNW 13 20 7 11 1017.4 1017.4 0.0
22/10:30am 23.5 23.0 13.7 54 5.7 NNW 9 22 5 12 1017.3 1017.3 0.0
22/10:00am 22.8 23.0 14.1 58 5.1 NE 6 11 3 6 1017.3 1017.3 0.0
22/09:30am 21.0 22.3 15.1 69 3.5 N 2 7 1 4 1017.1 1017.1 0.0
22/09:00am 19.3 18.6 13.2 68 3.5 NNE 9 11 5 6 1016.9 1016.9 0.0
22/08:30am 19.5 18.8 12.0 62 4.2 W 7 9 4 5 1017.1 1017.1 0.0
22/08:00am 19.5 18.2 11.3 59 4.5 W 9 11 5 6 1017.0 1017.0 0.0
22/07:30am 17.0 15.8 10.4 65 3.5 NW 7 9 4 5 1016.5 1016.5 0.0
22/07:00am 15.5 13.4 9.8 69 3.0 W 11 13 6 7 1017.1 1017.1 0.0
22/06:30am 16.6 14.7 10.5 67 3.3 W 11 17 6 9 1016.9 1016.9 0.0
22/06:00am 17.7 14.9 10.1 61 4.0 WNW 15 20 8 11 1017.0 1017.0 0.0
22/05:30am 19.1 15.6 10.1 56 4.8 W 19 22 10 12 1017.0 1017.0 0.0
22/05:00am 18.1 14.8 9.7 58 4.4 N 17 22 9 12 1016.4 1016.4 0.0
22/04:30am 17.1 13.9 10.0 63 3.8 N 17 20 9 11 1016.3 1016.3 0.0
22/04:00am 16.4 13.6 10.0 66 3.4 N 15 19 8 10 1016.6 1016.6 0.0
22/03:30am 16.6 14.1 11.1 70 3.0 N 15 20 8 11 1016.7 1016.7 0.0
22/03:00am 15.7 13.7 11.5 76 2.3 N 13 19 7 10 1016.8 1016.8 0.0
22/02:30am 15.7 14.2 11.9 78 2.1 N 11 15 6 8 1017.2 1017.2 0.0
22/02:00am 14.9 13.5 12.2 84 1.5 NNE 11 15 6 8 1017.5 1017.5 0.0
22/01:30am 13.9 12.8 11.9 88 1.1 NE 9 13 5 7 1018.2 1018.2 0.0
22/01:00am 13.4 12.6 11.8 90 0.9 NE 7 9 4 5 1018.5 1018.5 0.0
22/12:30am 13.0 11.8 11.6 91 0.7 NE 9 11 5 6 1018.8 1018.8 0.0
22/12:00am 13.2 12.1 11.9 92 0.7 NE 9 11 5 6 1019.2 1019.2 0.0
 
Date/Time
EDT
Temp
°C
App
Temp
°C
Dew
Point
Rel
Hum
%
Delta-T
°C
Wind Press
QNH
hPa
Press
MSL
hPa
Rain
since 9 am
mm
Dir
 
Spd
km/h
Gust
km/h
Spd
kts
Gust
kts
21/11:30pm 12.5 11.2 11.2 92 0.7 NE 9 9 5 5 1019.7 1019.7 0.0
21/11:00pm 13.6 12.6 12.2 91 0.8 NE 9 11 5 6 1019.9 1019.9 0.0
21/10:30pm 14.0 13.4 12.4 90 0.9 ENE 7 11 4 6 1020.2 1020.2 0.0
21/10:00pm 14.4 13.4 12.4 88 1.1 ENE 9 13 5 7 1020.6 1020.6 0.0
21/09:30pm 14.3 12.9 12.3 88 1.1 ENE 11 15 6 8 1020.6 1020.6 0.0
21/09:00pm 14.1 13.0 12.0 87 1.1 ENE 9 11 5 6 1020.7 1020.7 0.0
21/08:30pm 14.8 13.7 11.9 83 1.6 E 9 13 5 7 1020.6 1020.6 0.0
21/08:00pm 15.5 13.4 12.4 82 1.7 E 15 20 8 11 1020.6 1020.6 0.0
21/07:30pm 16.4 14.4 12.8 79 2.0 E 15 22 8 12 1020.6 1020.6 0.0
21/07:00pm 17.5 16.0 13.2 76 2.4 E 13 20 7 11 1020.6 1020.6 0.0
21/06:30pm 18.1 16.3 13.2 73 2.8 E 15 22 8 12 1020.7 1020.7 0.0
21/06:00pm 19.2 17.4 13.2 68 3.4 E 15 24 8 13 1020.8 1020.8 0.0
21/05:30pm 20.0 17.7 13.0 64 4.0 E 17 22 9 12 1020.9 1020.9 0.0
21/05:00pm 20.5 18.1 12.7 61 4.4 E 17 24 9 13 1021.1 1021.1 0.0
21/04:30pm 21.3 19.1 13.2 60 4.7 E 17 22 9 12 1021.4 1021.4 0.0
21/04:00pm 21.4 19.2 13.3 60 4.6 E 17 20 9 11 1021.7 1021.8 0.0
21/03:30pm 21.6 20.2 14.5 64 4.2 E 15 19 8 10 1022.0 1022.1 0.0
21/03:00pm 21.4 20.4 14.6 65 4.0 E 13 19 7 10 1022.6 1022.7 0.0
21/02:30pm 20.6 19.3 13.8 65 3.9 E 13 20 7 11 1022.9 1023.0 0.0
21/02:00pm 20.4 19.5 13.6 65 3.9 E 11 17 6 9 1023.3 1023.4 0.0
21/01:30pm 19.7 18.6 13.2 66 3.7 ESE 11 15 6 8 1023.7 1023.8 0.0
21/01:00pm 18.9 18.2 13.3 70 3.2 E 9 17 5 9 1023.9 1024.0 0.0
21/12:30pm 18.0 16.7 12.5 70 3.1 E 11 15 6 8 1024.2 1024.3 0.0
21/12:00pm 17.3 15.5 12.0 71 2.9 E 13 17 7 9 1024.4 1024.5 0.0
21/11:30am 15.6 13.7 10.6 72 2.7 E 11 17 6 9 1024.7 1024.8 0.0
21/11:00am 13.5 11.0 9.6 77 2.0 E 13 19 7 10 1025.0 1025.1 0.0
21/10:30am 13.7 11.2 9.7 77 2.1 E 13 20 7 11 1025.2 1025.2 0.0
21/10:00am 12.8 10.1 8.9 77 2.0 E 13 20 7 11 1024.9 1025.0 0.0
21/09:30am 11.8 8.5 8.1 78 1.8 ENE 15 20 8 11 1025.0 1025.1 0.0
21/09:00am 11.2 8.3 8.2 82 1.5 ENE 13 22 7 12 1025.3 1025.3 0.0
21/08:30am 10.3 6.2 7.9 85 1.2 ENE 19 30 10 16 1025.2 1025.2 0.0
21/08:00am 9.8 5.1 7.6 86 1.0 E 22 33 12 18 1024.9 1025.0 0.0
21/07:30am 9.1 4.7 7.4 89 0.8 E 20 32 11 17 1024.7 1024.8 0.0
21/07:00am 8.8 3.9 7.1 89 0.8 ENE 22 37 12 20 1024.7 1024.8 0.0
21/06:30am 8.7 4.2 7.0 89 0.8 ENE 20 30 11 16 1024.5 1024.6 0.0
21/06:00am 8.7 3.8 7.0 89 0.8 ENE 22 37 12 20 1024.3 1024.4 0.0
21/05:30am 8.7 4.3 7.2 90 0.7 ENE 20 33 11 18 1024.5 1024.6 0.0
21/05:00am 8.7 4.4 7.2 90 0.7 ENE 19 33 10 18 1024.7 1024.8 0.0
21/04:30am 8.8 4.9 7.3 90 0.7 ENE 17 28 9 15 1024.9 1025.0 0.0
21/04:00am 8.9 4.7 7.4 90 0.7 ENE 19 26 10 14 1025.0 1025.1 0.0
21/03:30am 9.1 4.7 7.5 90 0.8 ENE 20 32 11 17 1025.4 1025.4 0.0
21/03:00am 9.3 5.5 7.6 89 0.8 ENE 17 24 9 13 1025.5 1025.5 0.0
21/02:30am 10.1 6.1 8.2 88 0.9 ENE 19 28 10 15 1025.7 1025.7 0.0
21/02:00am 10.5 6.5 8.3 86 1.1 ENE 19 32 10 17 1026.1 1026.1 0.0
21/01:30am 10.6 6.6 8.4 86 1.1 ENE 19 32 10 17 1026.4 1026.4 0.0
21/01:00am 10.8 6.6 8.2 84 1.3 E 20 35 11 19 1026.9 1026.9 0.0
21/12:30am 10.8 6.2 8.0 83 1.4 E 22 35 12 19 1027.2 1027.2 0.0
21/12:00am 10.6 6.5 7.8 83 1.3 E 19 32 10 17 1027.4 1027.4 0.0
 
Date/Time
EDT
Temp
°C
App
Temp
°C
Dew
Point
Rel
Hum
%
Delta-T
°C
Wind Press
QNH
hPa
Press
MSL
hPa
Rain
since 9 am
mm
Dir
 
Spd
km/h
Gust
km/h
Spd
kts
Gust
kts
20/11:30pm 10.5 6.8 7.9 84 1.3 ENE 17 28 9 15 1027.6 1027.6 0.0
20/11:00pm 10.8 6.5 7.7 81 1.5 ENE 20 32 11 17 1027.7 1027.7 0.0
20/10:30pm 11.2 6.8 7.5 78 1.8 E 20 28 11 15 1027.8 1027.8 0.0
20/10:00pm 11.9 7.4 8.4 79 1.7 E 22 33 12 18 1027.8 1027.8 0.0
20/09:30pm 12.1 8.3 9.7 85 1.2 E 20 33 11 18 1027.6 1027.6 0.0
20/09:00pm 11.9 7.1 8.9 82 1.5 E 24 39 13 21 1027.4 1027.4 0.0
20/08:30pm 11.8 7.0 8.8 82 1.5 E 24 33 13 18 1027.2 1027.2 0.0
20/08:00pm 11.8 6.9 8.5 80 1.6 E 24 39 13 21 1027.2 1027.2 0.0
20/07:30pm 12.2 7.2 8.1 76 2.0 E 24 39 13 21 1027.1 1027.1 0.0
20/07:00pm 12.8 7.4 8.1 73 2.3 E 26 39 14 21 1027.2 1027.2 0.0
20/06:30pm 13.3 8.5 7.5 68 2.8 E 22 33 12 18 1027.6 1027.6 0.0
20/06:00pm 13.3 7.6 6.6 64 3.2 E 26 39 14 21 1027.8 1027.8 0.0
20/05:30pm 13.5 8.3 7.1 65 3.1 ESE 24 39 13 21 1028.1 1028.1 0.0
20/05:00pm 13.9 8.6 7.0 63 3.3 ESE 24 37 13 20 1028.2 1028.2 0.0
20/04:30pm 14.0 8.7 6.8 62 3.5 ESE 24 41 13 22 1028.6 1028.6 0.0

Other Formats:

Comma delimited format used in spreadsheet applications
http://www.bom.gov.au/fwo/IDV60801/IDV60801.94828.axf

JavaScript Object Notation format (JSON) in row-major order
http://www.bom.gov.au/fwo/IDV60801/IDV60801.94828.json